sensor_id;sensor_type;location;lat;lon;timestamp;P1;durP1;ratioP1;P2;durP2;ratioP2
47659;SDS011;33403;43.608;1.458;2023-10-09T00:00:14;8.10;;;4.70;;
47659;SDS011;33403;43.608;1.458;2023-10-09T00:02:59;7.38;;;4.78;;
47659;SDS011;33403;43.608;1.458;2023-10-09T00:05:26;8.52;;;4.97;;
47659;SDS011;33403;43.608;1.458;2023-10-09T00:08:11;8.55;;;4.97;;
47659;SDS011;33403;43.608;1.458;2023-10-09T00:11:10;9.32;;;4.93;;
47659;SDS011;33403;43.608;1.458;2023-10-09T00:13:43;8.10;;;5.10;;
47659;SDS011;33403;43.608;1.458;2023-10-09T00:16:17;6.35;;;4.63;;
47659;SDS011;33403;43.608;1.458;2023-10-09T00:19:03;8.52;;;5.32;;
47659;SDS011;33403;43.608;1.458;2023-10-09T00:21:42;7.63;;;5.28;;
47659;SDS011;33403;43.608;1.458;2023-10-09T00:24:08;7.10;;;4.97;;
47659;SDS011;33403;43.608;1.458;2023-10-09T00:26:50;8.40;;;5.03;;
47659;SDS011;33403;43.608;1.458;2023-10-09T00:29:16;7.95;;;5.00;;
47659;SDS011;33403;43.608;1.458;2023-10-09T00:31:52;6.97;;;4.80;;
47659;SDS011;33403;43.608;1.458;2023-10-09T00:34:28;8.48;;;5.30;;
47659;SDS011;33403;43.608;1.458;2023-10-09T00:36:55;9.02;;;5.25;;
47659;SDS011;33403;43.608;1.458;2023-10-09T00:39:29;7.65;;;5.00;;
47659;SDS011;33403;43.608;1.458;2023-10-09T00:42:01;8.73;;;4.90;;
47659;SDS011;33403;43.608;1.458;2023-10-09T00:44:28;8.10;;;4.90;;
47659;SDS011;33403;43.608;1.458;2023-10-09T00:47:05;8.45;;;5.10;;
47659;SDS011;33403;43.608;1.458;2023-10-09T00:49:45;9.50;;;5.45;;
47659;SDS011;33403;43.608;1.458;2023-10-09T00:52:12;9.23;;;5.28;;
47659;SDS011;33403;43.608;1.458;2023-10-09T00:54:47;10.05;;;5.30;;
47659;SDS011;33403;43.608;1.458;2023-10-09T00:57:18;7.43;;;4.97;;
47659;SDS011;33403;43.608;1.458;2023-10-09T00:59:47;9.63;;;5.18;;
47659;SDS011;33403;43.608;1.458;2023-10-09T01:02:24;7.93;;;4.88;;
47659;SDS011;33403;43.608;1.458;2023-10-09T01:05:00;7.40;;;5.20;;
47659;SDS011;33403;43.608;1.458;2023-10-09T01:07:36;9.15;;;5.13;;
47659;SDS011;33403;43.608;1.458;2023-10-09T01:10:05;8.20;;;5.00;;
47659;SDS011;33403;43.608;1.458;2023-10-09T01:12:34;7.60;;;5.00;;
47659;SDS011;33403;43.608;1.458;2023-10-09T01:15:07;7.47;;;5.05;;
47659;SDS011;33403;43.608;1.458;2023-10-09T01:17:33;12.70;;;5.32;;
47659;SDS011;33403;43.608;1.458;2023-10-09T01:20:10;8.55;;;4.63;;
47659;SDS011;33403;43.608;1.458;2023-10-09T01:22:47;9.27;;;5.38;;
47659;SDS011;33403;43.608;1.458;2023-10-09T01:25:15;8.65;;;5.30;;
47659;SDS011;33403;43.608;1.458;2023-10-09T01:27:41;8.48;;;5.03;;
47659;SDS011;33403;43.608;1.458;2023-10-09T01:30:09;9.35;;;5.20;;
47659;SDS011;33403;43.608;1.458;2023-10-09T01:32:39;9.85;;;5.07;;
47659;SDS011;33403;43.608;1.458;2023-10-09T01:35:05;8.45;;;5.38;;
47659;SDS011;33403;43.608;1.458;2023-10-09T01:37:46;8.15;;;5.20;;
47659;SDS011;33403;43.608;1.458;2023-10-09T01:40:16;9.70;;;5.13;;
47659;SDS011;33403;43.608;1.458;2023-10-09T01:42:52;8.60;;;5.22;;
47659;SDS011;33403;43.608;1.458;2023-10-09T01:45:18;8.95;;;5.28;;
47659;SDS011;33403;43.608;1.458;2023-10-09T01:47:44;8.38;;;4.80;;
47659;SDS011;33403;43.608;1.458;2023-10-09T01:50:22;6.97;;;4.85;;
47659;SDS011;33403;43.608;1.458;2023-10-09T01:53:00;7.85;;;5.22;;
47659;SDS011;33403;43.608;1.458;2023-10-09T01:55:27;7.97;;;4.78;;
47659;SDS011;33403;43.608;1.458;2023-10-09T01:58:00;8.65;;;5.30;;
47659;SDS011;33403;43.608;1.458;2023-10-09T02:00:47;8.93;;;4.82;;
47659;SDS011;33403;43.608;1.458;2023-10-09T02:03:26;9.10;;;5.05;;
47659;SDS011;33403;43.608;1.458;2023-10-09T02:05:54;9.13;;;4.97;;
47659;SDS011;33403;43.608;1.458;2023-10-09T02:08:28;8.63;;;4.80;;
47659;SDS011;33403;43.608;1.458;2023-10-09T02:11:01;8.63;;;4.68;;
47659;SDS011;33403;43.608;1.458;2023-10-09T02:13:27;7.38;;;5.18;;
47659;SDS011;33403;43.608;1.458;2023-10-09T02:16:00;10.32;;;5.07;;
47659;SDS011;33403;43.608;1.458;2023-10-09T02:18:53;11.18;;;5.63;;
47659;SDS011;33403;43.608;1.458;2023-10-09T02:21:21;7.53;;;5.15;;
47659;SDS011;33403;43.608;1.458;2023-10-09T02:23:54;8.32;;;4.88;;
47659;SDS011;33403;43.608;1.458;2023-10-09T02:26:22;7.68;;;4.65;;
47659;SDS011;33403;43.608;1.458;2023-10-09T02:28:57;7.45;;;4.65;;
47659;SDS011;33403;43.608;1.458;2023-10-09T02:31:27;8.15;;;5.30;;
47659;SDS011;33403;43.608;1.458;2023-10-09T02:34:05;8.15;;;4.90;;
47659;SDS011;33403;43.608;1.458;2023-10-09T02:36:33;7.78;;;4.85;;
47659;SDS011;33403;43.608;1.458;2023-10-09T02:39:14;9.57;;;5.40;;
47659;SDS011;33403;43.608;1.458;2023-10-09T02:41:54;10.68;;;5.40;;
47659;SDS011;33403;43.608;1.458;2023-10-09T02:44:26;8.50;;;4.75;;
47659;SDS011;33403;43.608;1.458;2023-10-09T02:46:55;9.80;;;5.32;;
47659;SDS011;33403;43.608;1.458;2023-10-09T02:49:26;9.32;;;5.03;;
47659;SDS011;33403;43.608;1.458;2023-10-09T02:51:52;7.78;;;5.15;;
47659;SDS011;33403;43.608;1.458;2023-10-09T02:54:18;8.38;;;4.85;;
47659;SDS011;33403;43.608;1.458;2023-10-09T02:56:59;7.05;;;4.93;;
47659;SDS011;33403;43.608;1.458;2023-10-09T02:59:32;7.82;;;5.03;;
47659;SDS011;33403;43.608;1.458;2023-10-09T03:01:58;9.43;;;4.78;;
47659;SDS011;33403;43.608;1.458;2023-10-09T03:04:28;8.00;;;5.28;;
47659;SDS011;33403;43.608;1.458;2023-10-09T03:06:58;8.95;;;4.85;;
47659;SDS011;33403;43.608;1.458;2023-10-09T03:09:24;9.50;;;5.20;;
47659;SDS011;33403;43.608;1.458;2023-10-09T03:11:57;8.50;;;4.88;;
47659;SDS011;33403;43.608;1.458;2023-10-09T03:14:37;7.07;;;4.97;;
47659;SDS011;33403;43.608;1.458;2023-10-09T03:17:04;8.50;;;5.07;;
47659;SDS011;33403;43.608;1.458;2023-10-09T03:19:33;6.90;;;4.90;;
47659;SDS011;33403;43.608;1.458;2023-10-09T03:22:05;8.07;;;5.20;;
47659;SDS011;33403;43.608;1.458;2023-10-09T03:24:35;6.63;;;5.13;;
47659;SDS011;33403;43.608;1.458;2023-10-09T03:27:02;8.40;;;5.13;;
47659;SDS011;33403;43.608;1.458;2023-10-09T03:29:28;9.80;;;5.32;;
47659;SDS011;33403;43.608;1.458;2023-10-09T03:31:54;11.30;;;5.18;;
47659;SDS011;33403;43.608;1.458;2023-10-09T03:34:21;9.38;;;5.03;;
47659;SDS011;33403;43.608;1.458;2023-10-09T03:36:48;9.13;;;5.30;;
47659;SDS011;33403;43.608;1.458;2023-10-09T03:39:28;9.05;;;5.65;;
47659;SDS011;33403;43.608;1.458;2023-10-09T03:42:06;9.52;;;5.28;;
47659;SDS011;33403;43.608;1.458;2023-10-09T03:44:36;7.63;;;4.95;;
47659;SDS011;33403;43.608;1.458;2023-10-09T03:47:06;9.35;;;5.22;;
47659;SDS011;33403;43.608;1.458;2023-10-09T03:49:35;8.15;;;5.38;;
47659;SDS011;33403;43.608;1.458;2023-10-09T03:52:04;11.52;;;5.28;;
47659;SDS011;33403;43.608;1.458;2023-10-09T03:54:32;6.65;;;4.70;;
47659;SDS011;33403;43.608;1.458;2023-10-09T03:57:00;9.27;;;5.32;;
47659;SDS011;33403;43.608;1.458;2023-10-09T03:59:26;9.05;;;4.60;;
47659;SDS011;33403;43.608;1.458;2023-10-09T04:01:56;6.47;;;4.70;;
47659;SDS011;33403;43.608;1.458;2023-10-09T04:04:23;16.38;;;5.35;;
47659;SDS011;33403;43.608;1.458;2023-10-09T04:06:49;9.05;;;5.38;;
47659;SDS011;33403;43.608;1.458;2023-10-09T04:09:18;6.68;;;5.00;;
47659;SDS011;33403;43.608;1.458;2023-10-09T04:11:48;6.90;;;4.60;;
47659;SDS011;33403;43.608;1.458;2023-10-09T04:14:22;8.48;;;4.78;;
47659;SDS011;33403;43.608;1.458;2023-10-09T04:17:11;9.65;;;5.60;;
47659;SDS011;33403;43.608;1.458;2023-10-09T04:19:55;11.63;;;5.03;;
47659;SDS011;33403;43.608;1.458;2023-10-09T04:22:40;9.07;;;5.03;;
47659;SDS011;33403;43.608;1.458;2023-10-09T04:25:17;9.63;;;5.57;;
47659;SDS011;33403;43.608;1.458;2023-10-09T04:27:51;10.35;;;5.15;;
47659;SDS011;33403;43.608;1.458;2023-10-09T04:30:18;10.65;;;5.20;;
47659;SDS011;33403;43.608;1.458;2023-10-09T04:32:44;8.35;;;5.07;;
47659;SDS011;33403;43.608;1.458;2023-10-09T04:35:11;9.57;;;5.50;;
47659;SDS011;33403;43.608;1.458;2023-10-09T04:37:51;10.02;;;5.50;;
47659;SDS011;33403;43.608;1.458;2023-10-09T04:40:25;9.90;;;5.30;;
47659;SDS011;33403;43.608;1.458;2023-10-09T04:43:13;8.40;;;5.22;;
47659;SDS011;33403;43.608;1.458;2023-10-09T04:45:46;11.55;;;5.53;;
47659;SDS011;33403;43.608;1.458;2023-10-09T04:48:30;10.13;;;5.93;;
47659;SDS011;33403;43.608;1.458;2023-10-09T04:51:03;8.77;;;5.00;;
47659;SDS011;33403;43.608;1.458;2023-10-09T04:53:59;10.07;;;5.47;;
47659;SDS011;33403;43.608;1.458;2023-10-09T04:56:37;8.63;;;5.45;;
47659;SDS011;33403;43.608;1.458;2023-10-09T04:59:16;8.55;;;5.53;;
47659;SDS011;33403;43.608;1.458;2023-10-09T05:01:43;9.77;;;5.40;;
47659;SDS011;33403;43.608;1.458;2023-10-09T05:04:22;10.02;;;6.00;;
47659;SDS011;33403;43.608;1.458;2023-10-09T05:07:00;8.65;;;5.65;;
47659;SDS011;33403;43.608;1.458;2023-10-09T05:09:45;10.05;;;5.75;;
47659;SDS011;33403;43.608;1.458;2023-10-09T05:12:21;12.93;;;5.63;;
47659;SDS011;33403;43.608;1.458;2023-10-09T05:14:51;10.68;;;5.80;;
47659;SDS011;33403;43.608;1.458;2023-10-09T05:17:34;10.00;;;5.68;;
47659;SDS011;33403;43.608;1.458;2023-10-09T05:20:01;11.77;;;6.13;;
47659;SDS011;33403;43.608;1.458;2023-10-09T05:22:46;10.10;;;5.80;;
47659;SDS011;33403;43.608;1.458;2023-10-09T05:25:40;12.90;;;5.75;;
47659;SDS011;33403;43.608;1.458;2023-10-09T05:28:18;9.95;;;5.75;;
47659;SDS011;33403;43.608;1.458;2023-10-09T05:30:56;12.00;;;6.25;;
47659;SDS011;33403;43.608;1.458;2023-10-09T05:33:35;12.63;;;6.18;;
47659;SDS011;33403;43.608;1.458;2023-10-09T05:36:03;12.98;;;6.63;;
47659;SDS011;33403;43.608;1.458;2023-10-09T05:38:48;9.43;;;6.47;;
47659;SDS011;33403;43.608;1.458;2023-10-09T05:41:27;11.63;;;6.18;;
47659;SDS011;33403;43.608;1.458;2023-10-09T05:44:10;10.63;;;6.63;;
47659;SDS011;33403;43.608;1.458;2023-10-09T05:46:59;11.10;;;6.57;;
47659;SDS011;33403;43.608;1.458;2023-10-09T05:49:48;13.10;;;6.60;;
47659;SDS011;33403;43.608;1.458;2023-10-09T05:52:31;10.63;;;6.15;;
47659;SDS011;33403;43.608;1.458;2023-10-09T05:54:58;10.75;;;6.43;;
47659;SDS011;33403;43.608;1.458;2023-10-09T05:57:42;11.60;;;6.53;;
47659;SDS011;33403;43.608;1.458;2023-10-09T06:00:21;9.85;;;6.05;;
47659;SDS011;33403;43.608;1.458;2023-10-09T06:03:06;13.18;;;6.97;;
47659;SDS011;33403;43.608;1.458;2023-10-09T06:05:50;14.55;;;6.63;;
47659;SDS011;33403;43.608;1.458;2023-10-09T06:08:27;13.13;;;6.18;;
47659;SDS011;33403;43.608;1.458;2023-10-09T06:11:13;10.07;;;6.05;;
47659;SDS011;33403;43.608;1.458;2023-10-09T06:13:59;11.00;;;6.47;;
47659;SDS011;33403;43.608;1.458;2023-10-09T06:16:28;10.80;;;5.82;;
47659;SDS011;33403;43.608;1.458;2023-10-09T06:19:07;11.32;;;6.70;;
47659;SDS011;33403;43.608;1.458;2023-10-09T06:21:36;11.65;;;6.68;;
47659;SDS011;33403;43.608;1.458;2023-10-09T06:24:24;12.38;;;5.50;;
47659;SDS011;33403;43.608;1.458;2023-10-09T06:26:54;14.05;;;6.00;;
47659;SDS011;33403;43.608;1.458;2023-10-09T06:29:26;12.40;;;6.28;;
47659;SDS011;33403;43.608;1.458;2023-10-09T06:34:46;10.13;;;6.28;;
47659;SDS011;33403;43.608;1.458;2023-10-09T06:37:17;11.30;;;5.85;;
47659;SDS011;33403;43.608;1.458;2023-10-09T06:39:43;12.30;;;6.00;;
47659;SDS011;33403;43.608;1.458;2023-10-09T06:42:15;12.88;;;6.45;;
47659;SDS011;33403;43.608;1.458;2023-10-09T06:45:10;10.27;;;5.70;;
47659;SDS011;33403;43.608;1.458;2023-10-09T06:47:42;10.20;;;5.97;;
47659;SDS011;33403;43.608;1.458;2023-10-09T06:50:21;9.63;;;6.03;;
47659;SDS011;33403;43.608;1.458;2023-10-09T06:52:50;12.82;;;5.70;;
47659;SDS011;33403;43.608;1.458;2023-10-09T06:55:22;10.65;;;6.03;;
47659;SDS011;33403;43.608;1.458;2023-10-09T06:57:57;12.00;;;6.53;;
47659;SDS011;33403;43.608;1.458;2023-10-09T07:00:26;12.82;;;6.05;;
47659;SDS011;33403;43.608;1.458;2023-10-09T07:03:11;10.77;;;6.10;;
47659;SDS011;33403;43.608;1.458;2023-10-09T07:05:40;11.52;;;5.88;;
47659;SDS011;33403;43.608;1.458;2023-10-09T07:08:24;8.95;;;5.75;;
47659;SDS011;33403;43.608;1.458;2023-10-09T07:10:57;11.50;;;6.15;;
47659;SDS011;33403;43.608;1.458;2023-10-09T07:13:43;19.98;;;6.30;;
47659;SDS011;33403;43.608;1.458;2023-10-09T07:16:19;13.63;;;6.00;;
47659;SDS011;33403;43.608;1.458;2023-10-09T07:19:03;12.05;;;6.00;;
47659;SDS011;33403;43.608;1.458;2023-10-09T07:21:51;11.32;;;5.70;;
47659;SDS011;33403;43.608;1.458;2023-10-09T07:24:19;18.08;;;6.50;;
47659;SDS011;33403;43.608;1.458;2023-10-09T07:26:49;18.98;;;6.32;;
47659;SDS011;33403;43.608;1.458;2023-10-09T07:29:19;21.13;;;6.97;;
47659;SDS011;33403;43.608;1.458;2023-10-09T07:31:52;10.35;;;6.10;;
47659;SDS011;33403;43.608;1.458;2023-10-09T07:34:37;14.20;;;6.38;;
47659;SDS011;33403;43.608;1.458;2023-10-09T07:37:19;10.93;;;6.53;;
47659;SDS011;33403;43.608;1.458;2023-10-09T07:39:47;12.82;;;6.38;;
47659;SDS011;33403;43.608;1.458;2023-10-09T07:42:22;14.05;;;6.07;;
47659;SDS011;33403;43.608;1.458;2023-10-09T07:45:07;11.77;;;5.65;;
47659;SDS011;33403;43.608;1.458;2023-10-09T07:47:46;14.73;;;5.78;;
47659;SDS011;33403;43.608;1.458;2023-10-09T07:50:34;13.13;;;6.28;;
47659;SDS011;33403;43.608;1.458;2023-10-09T07:53:06;12.30;;;5.82;;
47659;SDS011;33403;43.608;1.458;2023-10-09T07:55:51;16.10;;;6.38;;
47659;SDS011;33403;43.608;1.458;2023-10-09T07:58:22;10.45;;;5.70;;
47659;SDS011;33403;43.608;1.458;2023-10-09T08:00:52;16.88;;;6.90;;
47659;SDS011;33403;43.608;1.458;2023-10-09T08:03:40;13.90;;;6.25;;
47659;SDS011;33403;43.608;1.458;2023-10-09T08:06:10;12.80;;;6.15;;
47659;SDS011;33403;43.608;1.458;2023-10-09T08:08:55;9.25;;;5.32;;
47659;SDS011;33403;43.608;1.458;2023-10-09T08:11:27;11.80;;;5.97;;
47659;SDS011;33403;43.608;1.458;2023-10-09T08:14:09;16.23;;;5.82;;
47659;SDS011;33403;43.608;1.458;2023-10-09T08:16:55;13.90;;;5.85;;
47659;SDS011;33403;43.608;1.458;2023-10-09T08:19:40;13.50;;;5.68;;
47659;SDS011;33403;43.608;1.458;2023-10-09T08:22:26;12.07;;;6.05;;
47659;SDS011;33403;43.608;1.458;2023-10-09T08:24:56;13.27;;;5.68;;
47659;SDS011;33403;43.608;1.458;2023-10-09T08:27:25;14.77;;;6.03;;
47659;SDS011;33403;43.608;1.458;2023-10-09T08:29:55;11.50;;;6.00;;
47659;SDS011;33403;43.608;1.458;2023-10-09T08:32:50;12.65;;;5.78;;
47659;SDS011;33403;43.608;1.458;2023-10-09T08:35:26;10.02;;;5.78;;
47659;SDS011;33403;43.608;1.458;2023-10-09T08:37:57;12.43;;;5.63;;
47659;SDS011;33403;43.608;1.458;2023-10-09T08:40:31;13.77;;;5.63;;
47659;SDS011;33403;43.608;1.458;2023-10-09T08:43:08;14.23;;;5.93;;
47659;SDS011;33403;43.608;1.458;2023-10-09T08:45:38;11.85;;;5.70;;
47659;SDS011;33403;43.608;1.458;2023-10-09T08:48:08;15.07;;;6.28;;
47659;SDS011;33403;43.608;1.458;2023-10-09T08:50:40;9.80;;;5.68;;
47659;SDS011;33403;43.608;1.458;2023-10-09T08:53:07;11.18;;;5.20;;
47659;SDS011;33403;43.608;1.458;2023-10-09T08:55:36;10.55;;;5.35;;
47659;SDS011;33403;43.608;1.458;2023-10-09T08:58:04;10.52;;;5.47;;
47659;SDS011;33403;43.608;1.458;2023-10-09T09:00:53;16.40;;;5.95;;
47659;SDS011;33403;43.608;1.458;2023-10-09T09:03:23;11.07;;;5.10;;
47659;SDS011;33403;43.608;1.458;2023-10-09T09:05:57;14.30;;;5.20;;
47659;SDS011;33403;43.608;1.458;2023-10-09T09:08:26;14.70;;;5.15;;
47659;SDS011;33403;43.608;1.458;2023-10-09T09:11:02;8.07;;;4.93;;
47659;SDS011;33403;43.608;1.458;2023-10-09T09:14:04;11.00;;;4.97;;
47659;SDS011;33403;43.608;1.458;2023-10-09T09:16:32;12.45;;;5.07;;
47659;SDS011;33403;43.608;1.458;2023-10-09T09:19:01;12.05;;;5.03;;
47659;SDS011;33403;43.608;1.458;2023-10-09T09:21:33;11.57;;;5.20;;
47659;SDS011;33403;43.608;1.458;2023-10-09T09:24:03;13.30;;;5.20;;
47659;SDS011;33403;43.608;1.458;2023-10-09T09:26:52;11.52;;;4.97;;
47659;SDS011;33403;43.608;1.458;2023-10-09T09:29:37;13.30;;;5.40;;
47659;SDS011;33403;43.608;1.458;2023-10-09T09:32:04;11.85;;;4.72;;
47659;SDS011;33403;43.608;1.458;2023-10-09T09:34:45;12.25;;;5.05;;
47659;SDS011;33403;43.608;1.458;2023-10-09T09:37:13;11.30;;;5.65;;
47659;SDS011;33403;43.608;1.458;2023-10-09T09:39:44;10.43;;;5.50;;
47659;SDS011;33403;43.608;1.458;2023-10-09T09:42:13;10.00;;;4.93;;
47659;SDS011;33403;43.608;1.458;2023-10-09T09:44:39;10.85;;;4.97;;
47659;SDS011;33403;43.608;1.458;2023-10-09T09:47:09;9.55;;;4.75;;
47659;SDS011;33403;43.608;1.458;2023-10-09T09:49:38;10.02;;;4.60;;
47659;SDS011;33403;43.608;1.458;2023-10-09T09:52:04;11.13;;;4.85;;
47659;SDS011;33403;43.608;1.458;2023-10-09T09:54:35;9.45;;;4.20;;
47659;SDS011;33403;43.608;1.458;2023-10-09T09:57:03;7.60;;;4.25;;
47659;SDS011;33403;43.608;1.458;2023-10-09T09:59:38;13.32;;;5.10;;
47659;SDS011;33403;43.608;1.458;2023-10-09T10:02:17;9.57;;;4.50;;
47659;SDS011;33403;43.608;1.458;2023-10-09T10:04:45;10.90;;;4.40;;
47659;SDS011;33403;43.608;1.458;2023-10-09T10:07:15;8.10;;;4.30;;
47659;SDS011;33403;43.608;1.458;2023-10-09T10:09:42;11.60;;;4.53;;
47659;SDS011;33403;43.608;1.458;2023-10-09T10:12:10;10.23;;;4.85;;
47659;SDS011;33403;43.608;1.458;2023-10-09T10:14:55;10.98;;;4.70;;
47659;SDS011;33403;43.608;1.458;2023-10-09T10:17:32;9.35;;;4.82;;
47659;SDS011;33403;43.608;1.458;2023-10-09T10:20:18;10.43;;;4.53;;
47659;SDS011;33403;43.608;1.458;2023-10-09T10:22:45;9.15;;;4.78;;
47659;SDS011;33403;43.608;1.458;2023-10-09T10:28:16;7.72;;;4.40;;
47659;SDS011;33403;43.608;1.458;2023-10-09T10:31:01;11.93;;;4.30;;
47659;SDS011;33403;43.608;1.458;2023-10-09T10:36:17;8.57;;;4.35;;
47659;SDS011;33403;43.608;1.458;2023-10-09T10:38:47;11.15;;;4.80;;
47659;SDS011;33403;43.608;1.458;2023-10-09T10:41:29;10.73;;;4.03;;
47659;SDS011;33403;43.608;1.458;2023-10-09T10:44:01;9.23;;;4.65;;
47659;SDS011;33403;43.608;1.458;2023-10-09T10:46:46;9.82;;;4.40;;
47659;SDS011;33403;43.608;1.458;2023-10-09T10:49:17;8.68;;;4.72;;
47659;SDS011;33403;43.608;1.458;2023-10-09T10:51:47;11.52;;;5.03;;
47659;SDS011;33403;43.608;1.458;2023-10-09T10:54:20;10.85;;;4.65;;
47659;SDS011;33403;43.608;1.458;2023-10-09T10:56:55;8.50;;;4.45;;
47659;SDS011;33403;43.608;1.458;2023-10-09T10:59:23;7.68;;;4.57;;
47659;SDS011;33403;43.608;1.458;2023-10-09T11:01:50;10.07;;;4.50;;
47659;SDS011;33403;43.608;1.458;2023-10-09T11:04:26;8.80;;;4.75;;
47659;SDS011;33403;43.608;1.458;2023-10-09T11:06:59;6.68;;;4.53;;
47659;SDS011;33403;43.608;1.458;2023-10-09T11:12:29;8.73;;;4.57;;
47659;SDS011;33403;43.608;1.458;2023-10-09T11:15:10;9.13;;;4.18;;
47659;SDS011;33403;43.608;1.458;2023-10-09T11:17:45;7.97;;;4.68;;
47659;SDS011;33403;43.608;1.458;2023-10-09T11:20:11;7.05;;;4.53;;
47659;SDS011;33403;43.608;1.458;2023-10-09T11:22:56;9.18;;;4.35;;
47659;SDS011;33403;43.608;1.458;2023-10-09T11:25:42;13.90;;;4.65;;
47659;SDS011;33403;43.608;1.458;2023-10-09T11:28:21;14.48;;;4.55;;
47659;SDS011;33403;43.608;1.458;2023-10-09T11:31:12;9.13;;;4.10;;
47659;SDS011;33403;43.608;1.458;2023-10-09T11:36:20;9.25;;;4.45;;
47659;SDS011;33403;43.608;1.458;2023-10-09T11:38:56;8.15;;;4.47;;
47659;SDS011;33403;43.608;1.458;2023-10-09T11:41:43;8.45;;;4.30;;
47659;SDS011;33403;43.608;1.458;2023-10-09T11:44:14;8.95;;;4.75;;
47659;SDS011;33403;43.608;1.458;2023-10-09T11:46:59;9.07;;;4.60;;
47659;SDS011;33403;43.608;1.458;2023-10-09T11:49:56;6.88;;;4.57;;
47659;SDS011;33403;43.608;1.458;2023-10-09T11:52:25;8.23;;;4.40;;
47659;SDS011;33403;43.608;1.458;2023-10-09T11:55:02;7.20;;;4.70;;
47659;SDS011;33403;43.608;1.458;2023-10-09T11:57:31;10.30;;;5.15;;
47659;SDS011;33403;43.608;1.458;2023-10-09T12:00:02;6.90;;;4.22;;
47659;SDS011;33403;43.608;1.458;2023-10-09T12:02:36;6.63;;;4.28;;
47659;SDS011;33403;43.608;1.458;2023-10-09T12:05:09;6.65;;;4.28;;
47659;SDS011;33403;43.608;1.458;2023-10-09T12:07:42;6.35;;;4.20;;
47659;SDS011;33403;43.608;1.458;2023-10-09T12:10:08;8.25;;;4.50;;
47659;SDS011;33403;43.608;1.458;2023-10-09T12:12:35;7.18;;;4.47;;
47659;SDS011;33403;43.608;1.458;2023-10-09T12:15:01;7.82;;;4.32;;
47659;SDS011;33403;43.608;1.458;2023-10-09T12:17:30;6.53;;;4.30;;
47659;SDS011;33403;43.608;1.458;2023-10-09T12:19:56;7.75;;;4.65;;
47659;SDS011;33403;43.608;1.458;2023-10-09T12:22:23;7.32;;;4.50;;
47659;SDS011;33403;43.608;1.458;2023-10-09T12:24:52;7.82;;;4.00;;
47659;SDS011;33403;43.608;1.458;2023-10-09T12:27:19;6.57;;;4.35;;
47659;SDS011;33403;43.608;1.458;2023-10-09T12:29:47;6.68;;;4.20;;
47659;SDS011;33403;43.608;1.458;2023-10-09T12:32:14;7.43;;;4.03;;
47659;SDS011;33403;43.608;1.458;2023-10-09T12:34:44;7.68;;;4.57;;
47659;SDS011;33403;43.608;1.458;2023-10-09T12:37:10;7.63;;;4.30;;
47659;SDS011;33403;43.608;1.458;2023-10-09T12:39:37;7.57;;;4.20;;
47659;SDS011;33403;43.608;1.458;2023-10-09T12:42:05;6.43;;;4.03;;
47659;SDS011;33403;43.608;1.458;2023-10-09T12:44:32;7.82;;;4.13;;
47659;SDS011;33403;43.608;1.458;2023-10-09T12:47:07;8.85;;;4.20;;
47659;SDS011;33403;43.608;1.458;2023-10-09T12:49:36;7.13;;;4.00;;
47659;SDS011;33403;43.608;1.458;2023-10-09T12:52:06;5.75;;;3.90;;
47659;SDS011;33403;43.608;1.458;2023-10-09T12:54:40;7.95;;;4.10;;
47659;SDS011;33403;43.608;1.458;2023-10-09T12:57:06;7.22;;;4.25;;
47659;SDS011;33403;43.608;1.458;2023-10-09T12:59:38;7.45;;;4.32;;
47659;SDS011;33403;43.608;1.458;2023-10-09T13:02:05;7.65;;;3.80;;
47659;SDS011;33403;43.608;1.458;2023-10-09T13:04:31;6.05;;;4.05;;
47659;SDS011;33403;43.608;1.458;2023-10-09T13:06:58;6.82;;;4.15;;
47659;SDS011;33403;43.608;1.458;2023-10-09T13:09:29;9.27;;;4.15;;
47659;SDS011;33403;43.608;1.458;2023-10-09T13:12:07;8.35;;;4.10;;
47659;SDS011;33403;43.608;1.458;2023-10-09T13:14:33;7.82;;;4.10;;
47659;SDS011;33403;43.608;1.458;2023-10-09T13:17:00;8.55;;;4.22;;
47659;SDS011;33403;43.608;1.458;2023-10-09T13:19:33;8.35;;;4.10;;
47659;SDS011;33403;43.608;1.458;2023-10-09T13:21:59;6.15;;;3.72;;
47659;SDS011;33403;43.608;1.458;2023-10-09T13:24:28;9.52;;;4.30;;
47659;SDS011;33403;43.608;1.458;2023-10-09T13:26:56;8.75;;;4.18;;
47659;SDS011;33403;43.608;1.458;2023-10-09T13:29:26;7.78;;;4.28;;
47659;SDS011;33403;43.608;1.458;2023-10-09T13:31:53;8.90;;;4.13;;
47659;SDS011;33403;43.608;1.458;2023-10-09T13:34:23;10.68;;;4.45;;
47659;SDS011;33403;43.608;1.458;2023-10-09T13:36:53;7.38;;;4.03;;
47659;SDS011;33403;43.608;1.458;2023-10-09T13:39:19;9.68;;;4.18;;
47659;SDS011;33403;43.608;1.458;2023-10-09T13:41:46;6.45;;;4.03;;
47659;SDS011;33403;43.608;1.458;2023-10-09T13:44:12;8.15;;;3.88;;
47659;SDS011;33403;43.608;1.458;2023-10-09T13:46:38;5.80;;;3.80;;
47659;SDS011;33403;43.608;1.458;2023-10-09T13:49:07;6.28;;;3.97;;
47659;SDS011;33403;43.608;1.458;2023-10-09T13:51:38;6.75;;;3.63;;
47659;SDS011;33403;43.608;1.458;2023-10-09T13:54:09;6.63;;;3.55;;
47659;SDS011;33403;43.608;1.458;2023-10-09T13:56:35;7.63;;;3.85;;
47659;SDS011;33403;43.608;1.458;2023-10-09T13:59:04;7.07;;;3.70;;
47659;SDS011;33403;43.608;1.458;2023-10-09T14:01:36;6.00;;;3.83;;
47659;SDS011;33403;43.608;1.458;2023-10-09T14:04:04;5.78;;;3.80;;
47659;SDS011;33403;43.608;1.458;2023-10-09T14:06:33;7.70;;;4.00;;
47659;SDS011;33403;43.608;1.458;2023-10-09T14:09:00;5.70;;;3.50;;
47659;SDS011;33403;43.608;1.458;2023-10-09T14:11:29;5.70;;;3.47;;
47659;SDS011;33403;43.608;1.458;2023-10-09T14:13:56;7.90;;;3.80;;
47659;SDS011;33403;43.608;1.458;2023-10-09T14:16:25;7.97;;;3.72;;
47659;SDS011;33403;43.608;1.458;2023-10-09T14:18:54;7.55;;;3.90;;
47659;SDS011;33403;43.608;1.458;2023-10-09T14:21:23;8.05;;;3.88;;
47659;SDS011;33403;43.608;1.458;2023-10-09T14:23:51;5.95;;;3.55;;
47659;SDS011;33403;43.608;1.458;2023-10-09T14:26:20;10.10;;;3.97;;
47659;SDS011;33403;43.608;1.458;2023-10-09T14:28:47;8.25;;;3.63;;
47659;SDS011;33403;43.608;1.458;2023-10-09T14:31:13;6.70;;;3.63;;
47659;SDS011;33403;43.608;1.458;2023-10-09T14:33:46;6.45;;;3.42;;
47659;SDS011;33403;43.608;1.458;2023-10-09T14:36:16;9.40;;;3.58;;
47659;SDS011;33403;43.608;1.458;2023-10-09T14:38:43;7.78;;;3.92;;
47659;SDS011;33403;43.608;1.458;2023-10-09T14:41:12;5.50;;;4.05;;
47659;SDS011;33403;43.608;1.458;2023-10-09T14:43:38;6.20;;;3.63;;
47659;SDS011;33403;43.608;1.458;2023-10-09T14:46:04;5.03;;;3.47;;
47659;SDS011;33403;43.608;1.458;2023-10-09T14:48:36;7.13;;;3.60;;
47659;SDS011;33403;43.608;1.458;2023-10-09T14:51:02;8.48;;;3.58;;
47659;SDS011;33403;43.608;1.458;2023-10-09T14:53:32;7.03;;;3.40;;
47659;SDS011;33403;43.608;1.458;2023-10-09T14:55:59;7.95;;;3.60;;
47659;SDS011;33403;43.608;1.458;2023-10-09T14:58:33;7.30;;;3.60;;
47659;SDS011;33403;43.608;1.458;2023-10-09T15:01:09;7.93;;;3.63;;
47659;SDS011;33403;43.608;1.458;2023-10-09T15:03:37;5.35;;;3.22;;
47659;SDS011;33403;43.608;1.458;2023-10-09T15:06:04;5.00;;;3.42;;
47659;SDS011;33403;43.608;1.458;2023-10-09T15:08:36;7.03;;;3.50;;
47659;SDS011;33403;43.608;1.458;2023-10-09T15:11:02;7.85;;;3.55;;
47659;SDS011;33403;43.608;1.458;2023-10-09T15:13:28;7.72;;;3.70;;
47659;SDS011;33403;43.608;1.458;2023-10-09T15:15:55;5.72;;;3.33;;
47659;SDS011;33403;43.608;1.458;2023-10-09T15:18:21;5.90;;;3.63;;
47659;SDS011;33403;43.608;1.458;2023-10-09T15:20:48;7.10;;;3.67;;
47659;SDS011;33403;43.608;1.458;2023-10-09T15:23:14;6.88;;;3.88;;
47659;SDS011;33403;43.608;1.458;2023-10-09T15:25:40;6.88;;;3.60;;
47659;SDS011;33403;43.608;1.458;2023-10-09T15:28:10;5.68;;;3.75;;
47659;SDS011;33403;43.608;1.458;2023-10-09T15:30:36;7.65;;;3.83;;
47659;SDS011;33403;43.608;1.458;2023-10-09T15:33:06;9.60;;;3.50;;